createdAt,value
2019-01-11T00:00:17.372Z,1011.60
2019-01-11T00:01:17.347Z,1011.59
2019-01-11T00:02:17.372Z,1011.58
2019-01-11T00:03:17.322Z,1011.62
2019-01-11T00:04:17.303Z,1011.59
2019-01-11T00:05:17.301Z,1011.61
2019-01-11T00:06:17.277Z,1011.59
2019-01-11T00:07:17.352Z,1011.57
2019-01-11T00:08:17.312Z,1011.60
2019-01-11T00:09:17.278Z,1011.63
2019-01-11T00:10:17.296Z,1011.60
2019-01-11T00:11:17.226Z,1011.58
2019-01-11T00:12:17.246Z,1011.61
2019-01-11T00:13:17.208Z,1011.60
2019-01-11T00:14:17.234Z,1011.57
2019-01-11T00:15:17.242Z,1011.57
2019-01-11T00:16:17.201Z,1011.54
2019-01-11T00:17:17.192Z,1011.48
2019-01-11T00:18:17.167Z,1011.51
2019-01-11T00:19:17.181Z,1011.48
2019-01-11T00:20:17.164Z,1011.51
2019-01-11T00:21:17.137Z,1011.51
2019-01-11T00:22:17.142Z,1011.50
2019-01-11T00:23:17.125Z,1011.46
2019-01-11T00:24:17.119Z,1011.50
2019-01-11T00:25:17.110Z,1011.46
2019-01-11T00:26:17.081Z,1011.51
2019-01-11T00:27:17.077Z,1011.48
2019-01-11T00:28:17.052Z,1011.45
2019-01-11T00:29:17.053Z,1011.41
2019-01-11T00:30:17.069Z,1011.48
2019-01-11T00:31:17.052Z,1011.46
2019-01-11T00:32:17.025Z,1011.45
2019-01-11T00:33:17.077Z,1011.50
2019-01-11T00:34:17.020Z,1011.47
2019-01-11T00:35:16.978Z,1011.47
2019-01-11T00:36:16.972Z,1011.47
2019-01-11T00:37:16.994Z,1011.45
2019-01-11T00:38:16.978Z,1011.47
2019-01-11T00:39:16.925Z,1011.38
2019-01-11T00:40:16.921Z,1011.39
2019-01-11T00:41:16.969Z,1011.42
2019-01-11T00:42:16.908Z,1011.39
2019-01-11T00:43:16.907Z,1011.43
2019-01-11T00:44:16.892Z,1011.39
2019-01-11T00:45:16.897Z,1011.43
2019-01-11T00:46:16.857Z,1011.41
2019-01-11T00:47:16.859Z,1011.37
2019-01-11T00:48:17.225Z,1011.38
2019-01-11T00:49:16.820Z,1011.40
2019-01-11T00:50:16.832Z,1011.38
2019-01-11T00:51:16.808Z,1011.40
2019-01-11T00:52:16.805Z,1011.35
2019-01-11T00:53:16.786Z,1011.32
2019-01-11T00:54:16.793Z,1011.32
2019-01-11T00:55:16.762Z,1011.38
2019-01-11T00:56:16.770Z,1011.36
2019-01-11T00:57:16.746Z,1011.34
2019-01-11T00:58:16.732Z,1011.37
2019-01-11T00:59:16.731Z,1011.37
2019-01-11T01:00:16.717Z,1011.36
2019-01-11T01:01:16.709Z,1011.31
2019-01-11T01:02:16.759Z,1011.29
2019-01-11T01:03:16.745Z,1011.29
2019-01-11T01:04:16.716Z,1011.28
2019-01-11T01:05:16.730Z,1011.27
2019-01-11T01:06:16.650Z,1011.31
2019-01-11T01:07:16.678Z,1011.32
2019-01-11T01:08:16.673Z,1011.31
2019-01-11T01:09:16.617Z,1011.33
2019-01-11T01:10:16.706Z,1011.36
2019-01-11T01:11:16.604Z,1011.33
2019-01-11T01:12:16.603Z,1011.31
2019-01-11T01:13:16.650Z,1011.29
2019-01-11T01:14:16.595Z,1011.26
2019-01-11T01:15:16.554Z,1011.28
2019-01-11T01:16:16.644Z,1011.28
2019-01-11T01:17:16.628Z,1011.24
2019-01-11T01:18:16.525Z,1011.26
2019-01-11T01:19:19.975Z,1011.27
2019-01-11T01:20:16.520Z,1011.27
2019-01-11T01:21:16.505Z,1011.27
2019-01-11T01:22:16.475Z,1011.28
2019-01-11T01:23:16.486Z,1011.27
2019-01-11T01:24:16.460Z,1011.27
2019-01-11T01:25:16.464Z,1011.24
2019-01-11T01:26:16.511Z,1011.27
2019-01-11T01:27:16.461Z,1011.24
2019-01-11T01:28:16.417Z,1011.25
2019-01-11T01:29:16.434Z,1011.22
2019-01-11T01:30:16.391Z,1011.21
2019-01-11T01:31:16.392Z,1011.20
2019-01-11T01:32:16.373Z,1011.19
2019-01-11T01:33:16.365Z,1011.15
2019-01-11T01:34:16.426Z,1011.11
2019-01-11T01:35:16.363Z,1011.11
2019-01-11T01:36:16.338Z,1011.17
2019-01-11T01:37:16.329Z,1011.15
2019-01-11T01:38:16.348Z,1011.18
2019-01-11T01:39:16.327Z,1011.18
2019-01-11T01:40:16.290Z,1011.11
2019-01-11T01:41:16.308Z,1011.10
2019-01-11T01:42:16.291Z,1011.12
2019-01-11T01:43:16.284Z,1011.14
2019-01-11T01:44:16.240Z,1011.15
2019-01-11T01:45:16.273Z,1011.12
2019-01-11T01:46:16.255Z,1011.14
2019-01-11T01:47:16.219Z,1011.08
2019-01-11T01:48:17.269Z,1011.15
2019-01-11T01:49:16.228Z,1011.13
2019-01-11T01:50:16.199Z,1011.09
2019-01-11T01:51:16.177Z,1011.10
2019-01-11T01:52:16.200Z,1011.10
2019-01-11T01:53:16.160Z,1011.09
2019-01-11T01:54:16.173Z,1011.08
2019-01-11T01:55:16.131Z,1011.16
2019-01-11T01:56:16.122Z,1011.09
2019-01-11T01:57:16.184Z,1011.08
2019-01-11T01:58:16.132Z,1011.08
2019-01-11T01:59:16.153Z,1011.10
2019-01-11T02:00:16.129Z,1011.09
2019-01-11T02:01:16.062Z,1011.08
2019-01-11T02:02:16.071Z,1011.08
2019-01-11T02:03:16.083Z,1011.05
2019-01-11T02:04:16.089Z,1011.08
2019-01-11T02:05:16.063Z,1011.09
2019-01-11T02:06:16.206Z,1011.03
2019-01-11T02:07:16.053Z,1011.04
2019-01-11T02:08:16.038Z,1011.02
2019-01-11T02:09:15.994Z,1011.00
2019-01-11T02:10:16.085Z,1011.00
2019-01-11T02:11:15.994Z,1011.01
2019-01-11T02:12:16.012Z,1011.03
2019-01-11T02:13:15.946Z,1011.01
2019-01-11T02:14:15.974Z,1010.98
2019-01-11T02:15:15.912Z,1010.99
2019-01-11T02:16:15.928Z,1011.00
2019-01-11T02:17:15.921Z,1011.02
2019-01-11T02:18:15.945Z,1011.00
2019-01-11T02:19:15.893Z,1011.04
2019-01-11T02:20:15.949Z,1010.97
2019-01-11T02:21:15.864Z,1010.99
2019-01-11T02:22:15.894Z,1010.96
2019-01-11T02:23:15.974Z,1010.93
2019-01-11T02:24:15.895Z,1010.96
2019-01-11T02:25:15.833Z,1010.94
2019-01-11T02:26:15.825Z,1010.91
2019-01-11T02:27:15.794Z,1010.93
2019-01-11T02:28:15.817Z,1010.90
2019-01-11T02:29:15.783Z,1010.89
2019-01-11T02:30:15.783Z,1010.86
2019-01-11T02:31:15.760Z,1010.87
2019-01-11T02:32:15.750Z,1010.88
2019-01-11T02:33:15.723Z,1010.81
2019-01-11T02:34:15.760Z,1010.84
2019-01-11T02:35:15.734Z,1010.85
2019-01-11T02:36:15.694Z,1010.77
2019-01-11T02:37:15.677Z,1010.78
2019-01-11T02:38:15.673Z,1010.76
2019-01-11T02:39:15.672Z,1010.79
2019-01-11T02:40:15.652Z,1010.72
2019-01-11T02:41:15.711Z,1010.75
2019-01-11T02:42:15.664Z,1010.72
2019-01-11T02:43:15.645Z,1010.74
2019-01-11T02:44:15.636Z,1010.69
2019-01-11T02:45:15.610Z,1010.68
2019-01-11T02:46:15.648Z,1010.71
2019-01-11T02:47:15.576Z,1010.67
2019-01-11T02:48:15.948Z,1010.63
2019-01-11T02:49:15.572Z,1010.66
2019-01-11T02:50:15.564Z,1010.65
2019-01-11T02:51:15.550Z,1010.64
2019-01-11T02:52:15.537Z,1010.64
2019-01-11T02:53:15.565Z,1010.66
2019-01-11T02:54:15.519Z,1010.58
2019-01-11T02:55:15.582Z,1010.64
2019-01-11T02:56:15.493Z,1010.66
2019-01-11T02:57:15.488Z,1010.62
2019-01-11T02:58:15.531Z,1010.60
2019-01-11T02:59:15.447Z,1010.63
2019-01-11T03:00:15.456Z,1010.59
2019-01-11T03:01:15.434Z,1010.60
2019-01-11T03:02:15.434Z,1010.55
2019-01-11T03:03:15.415Z,1010.62
2019-01-11T03:04:15.453Z,1010.53
2019-01-11T03:05:15.392Z,1010.55
2019-01-11T03:06:15.499Z,1010.53
2019-01-11T03:07:15.399Z,1010.50
2019-01-11T03:08:15.421Z,1010.48
2019-01-11T03:09:15.338Z,1010.50
2019-01-11T03:10:15.358Z,1010.47
2019-01-11T03:11:15.364Z,1010.46
2019-01-11T03:12:15.319Z,1010.44
2019-01-11T03:13:15.398Z,1010.48
2019-01-11T03:14:15.302Z,1010.49
2019-01-11T03:15:15.303Z,1010.45
2019-01-11T03:16:15.307Z,1010.45
2019-01-11T03:17:15.272Z,1010.43
2019-01-11T03:18:15.245Z,1010.41
2019-01-11T03:19:15.276Z,1010.42
2019-01-11T03:20:15.249Z,1010.46
2019-01-11T03:21:15.253Z,1010.48
2019-01-11T03:22:15.261Z,1010.40
2019-01-11T03:23:15.209Z,1010.42
2019-01-11T03:24:15.206Z,1010.43
2019-01-11T03:25:15.180Z,1010.39
2019-01-11T03:26:15.280Z,1010.40
2019-01-11T03:27:15.156Z,1010.39
2019-01-11T03:28:15.165Z,1010.34
2019-01-11T03:29:15.137Z,1010.36
2019-01-11T03:30:15.240Z,1010.38
2019-01-11T03:31:15.110Z,1010.33
2019-01-11T03:32:15.184Z,1010.31
2019-01-11T03:33:15.161Z,1010.30
2019-01-11T03:34:15.095Z,1010.32
2019-01-11T03:35:15.082Z,1010.36
2019-01-11T03:36:15.091Z,1010.34
2019-01-11T03:37:15.075Z,1010.34
2019-01-11T03:38:15.039Z,1010.35
2019-01-11T03:39:15.066Z,1010.33
2019-01-11T03:40:15.019Z,1010.33
2019-01-11T03:41:15.003Z,1010.34
2019-01-11T03:42:15.145Z,1010.25
2019-01-11T03:43:15.023Z,1010.28
2019-01-11T03:44:15.003Z,1010.25
2019-01-11T03:45:14.968Z,1010.24
2019-01-11T03:46:14.982Z,1010.19
2019-01-11T03:47:15.024Z,1010.19
2019-01-11T03:48:15.013Z,1010.15
2019-01-11T03:49:14.936Z,1010.16
2019-01-11T03:50:14.934Z,1010.20
2019-01-11T03:51:14.991Z,1010.17
2019-01-11T03:52:14.945Z,1010.17
2019-01-11T03:53:15.018Z,1010.10
2019-01-11T03:54:14.910Z,1010.11
2019-01-11T03:55:14.871Z,1010.12
2019-01-11T03:56:14.877Z,1010.10
2019-01-11T03:57:14.858Z,1010.10
2019-01-11T03:58:14.851Z,1010.11
2019-01-11T03:59:14.894Z,1010.09
2019-01-11T04:00:14.834Z,1010.11
2019-01-11T04:01:14.828Z,1010.09
2019-01-11T04:02:14.788Z,1010.10
2019-01-11T04:03:14.784Z,1010.09
2019-01-11T04:04:14.778Z,1010.08
2019-01-11T04:05:14.827Z,1010.05
2019-01-11T04:06:14.769Z,1010.01
2019-01-11T04:07:14.775Z,1010.02
2019-01-11T04:08:14.737Z,1010.02
2019-01-11T04:09:14.739Z,1010.00
2019-01-11T04:10:14.732Z,1009.98
2019-01-11T04:11:14.693Z,1010.02
2019-01-11T04:12:14.681Z,1009.99
2019-01-11T04:13:14.720Z,1009.96
2019-01-11T04:14:14.669Z,1009.97
2019-01-11T04:15:14.686Z,1009.94
2019-01-11T04:16:14.641Z,1009.94
2019-01-11T04:17:14.647Z,1009.90
2019-01-11T04:18:14.652Z,1009.93
2019-01-11T04:19:14.633Z,1009.88
2019-01-11T04:20:14.593Z,1009.91
2019-01-11T04:21:14.638Z,1009.85
2019-01-11T04:22:14.562Z,1009.89
2019-01-11T04:23:14.577Z,1009.86
2019-01-11T04:24:14.585Z,1009.87
2019-01-11T04:25:14.589Z,1009.84
2019-01-11T04:26:14.530Z,1009.83
2019-01-11T04:27:14.607Z,1009.81
2019-01-11T04:28:14.513Z,1009.82
2019-01-11T04:29:14.549Z,1009.83
2019-01-11T04:30:14.562Z,1009.80
2019-01-11T04:31:14.527Z,1009.79
2019-01-11T04:32:14.491Z,1009.80
2019-01-11T04:33:14.451Z,1009.79
2019-01-11T04:34:14.459Z,1009.77
2019-01-11T04:35:14.463Z,1009.76
2019-01-11T04:36:14.416Z,1009.79
2019-01-11T04:37:14.428Z,1009.76
2019-01-11T04:38:14.408Z,1009.77
2019-01-11T04:39:14.386Z,1009.79
2019-01-11T04:40:14.391Z,1009.77
2019-01-11T04:41:14.363Z,1009.77
2019-01-11T04:42:14.367Z,1009.77
2019-01-11T04:43:14.341Z,1009.76
2019-01-11T04:44:14.345Z,1009.72
2019-01-11T04:45:14.315Z,1009.70
2019-01-11T04:46:14.307Z,1009.70
2019-01-11T04:47:15.523Z,1009.75
2019-01-11T04:48:14.305Z,1009.71
2019-01-11T04:49:14.276Z,1009.75
2019-01-11T04:50:14.308Z,1009.75
2019-01-11T04:51:14.260Z,1009.74
2019-01-11T04:52:14.244Z,1009.77
2019-01-11T04:53:14.243Z,1009.81
2019-01-11T04:54:14.221Z,1009.78
2019-01-11T04:55:14.221Z,1009.71
2019-01-11T04:56:14.210Z,1009.77
2019-01-11T04:57:14.196Z,1009.78
2019-01-11T04:58:14.221Z,1009.77
2019-01-11T04:59:14.201Z,1009.77
2019-01-11T05:00:14.155Z,1009.74
2019-01-11T05:01:14.189Z,1009.76
2019-01-11T05:02:14.167Z,1009.74
2019-01-11T05:03:14.214Z,1009.79
2019-01-11T05:04:14.159Z,1009.76
2019-01-11T05:05:14.178Z,1009.76
2019-01-11T05:06:14.136Z,1009.73
2019-01-11T05:07:14.127Z,1009.70
2019-01-11T05:08:14.094Z,1009.70
2019-01-11T05:09:14.100Z,1009.70
2019-01-11T05:10:14.125Z,1009.68
2019-01-11T05:11:14.784Z,1009.71
2019-01-11T05:12:14.118Z,1009.69
2019-01-11T05:13:14.012Z,1009.65
2019-01-11T05:14:14.018Z,1009.63
2019-01-11T05:15:14.008Z,1009.65
2019-01-11T05:16:14.041Z,1009.53
2019-01-11T05:17:13.999Z,1009.54
2019-01-11T05:18:13.957Z,1009.52
2019-01-11T05:19:13.942Z,1009.53
2019-01-11T05:20:16.808Z,1009.49
2019-01-11T05:21:14.044Z,1009.51
2019-01-11T05:22:14.117Z,1009.53
2019-01-11T05:23:13.930Z,1009.52
2019-01-11T05:24:13.899Z,1009.50
2019-01-11T05:25:13.913Z,1009.50
2019-01-11T05:26:13.892Z,1009.53
2019-01-11T05:27:13.880Z,1009.54
2019-01-11T05:28:13.972Z,1009.49
2019-01-11T05:29:13.894Z,1009.54
2019-01-11T05:30:13.862Z,1009.49
2019-01-11T05:31:13.831Z,1009.52
2019-01-11T05:32:13.850Z,1009.48
2019-01-11T05:33:13.800Z,1009.51
2019-01-11T05:34:13.834Z,1009.54
2019-01-11T05:35:13.780Z,1009.53
2019-01-11T05:36:13.866Z,1009.51
2019-01-11T05:37:13.773Z,1009.50
2019-01-11T05:38:13.757Z,1009.48
2019-01-11T05:39:13.740Z,1009.46
2019-01-11T05:40:13.742Z,1009.44
2019-01-11T05:41:13.714Z,1009.46
2019-01-11T05:42:13.726Z,1009.40
2019-01-11T05:43:13.729Z,1009.41
2019-01-11T05:44:13.688Z,1009.41
2019-01-11T05:45:13.710Z,1009.38
2019-01-11T05:46:13.729Z,1009.34
2019-01-11T05:47:13.648Z,1009.40
2019-01-11T05:48:13.655Z,1009.36
2019-01-11T05:49:13.638Z,1009.39
2019-01-11T05:50:13.662Z,1009.36
2019-01-11T05:51:13.629Z,1009.32
2019-01-11T05:52:13.651Z,1009.33
2019-01-11T05:53:13.679Z,1009.39
2019-01-11T05:54:13.657Z,1009.32
2019-01-11T05:55:13.562Z,1009.38
2019-01-11T05:56:13.575Z,1009.31
2019-01-11T05:57:13.638Z,1009.33
2019-01-11T05:58:13.544Z,1009.33
2019-01-11T05:59:13.518Z,1009.31
2019-01-11T06:00:13.517Z,1009.30
2019-01-11T06:01:13.560Z,1009.26
2019-01-11T06:02:13.536Z,1009.26
2019-01-11T06:03:13.541Z,1009.28
2019-01-11T06:04:13.537Z,1009.18
2019-01-11T06:05:13.448Z,1009.22
2019-01-11T06:06:13.473Z,1009.22
2019-01-11T06:07:13.478Z,1009.23
2019-01-11T06:08:13.535Z,1009.24
2019-01-11T06:09:13.419Z,1009.22
2019-01-11T06:10:13.394Z,1009.22
2019-01-11T06:11:13.464Z,1009.19
2019-01-11T06:12:13.405Z,1009.21
2019-01-11T06:13:13.410Z,1009.15
2019-01-11T06:14:13.356Z,1009.16
2019-01-11T06:15:13.401Z,1009.17
2019-01-11T06:16:13.393Z,1009.15
2019-01-11T06:17:13.332Z,1009.13
2019-01-11T06:18:13.318Z,1009.18
2019-01-11T06:19:13.432Z,1009.16
2019-01-11T06:20:13.379Z,1009.16
2019-01-11T06:21:13.335Z,1009.13
2019-01-11T06:22:13.303Z,1009.12
2019-01-11T06:23:13.267Z,1009.17
2019-01-11T06:24:13.264Z,1009.15
2019-01-11T06:25:13.259Z,1009.12
2019-01-11T06:26:13.230Z,1009.15
2019-01-11T06:27:13.217Z,1009.10
2019-01-11T06:28:13.214Z,1009.13
2019-01-11T06:29:13.215Z,1009.13
2019-01-11T06:30:13.189Z,1009.10
2019-01-11T06:31:13.182Z,1009.15
2019-01-11T06:32:13.160Z,1009.12
2019-01-11T06:33:13.183Z,1009.18
2019-01-11T06:34:13.234Z,1009.13
2019-01-11T06:35:13.205Z,1009.14
2019-01-11T06:36:13.154Z,1009.16
2019-01-11T06:37:13.120Z,1009.16
2019-01-11T06:38:13.114Z,1009.19
2019-01-11T06:39:13.155Z,1009.20
2019-01-11T06:40:13.197Z,1009.19
2019-01-11T06:41:13.070Z,1009.20
2019-01-11T06:42:13.070Z,1009.15
2019-01-11T06:43:13.083Z,1009.12
2019-01-11T06:44:13.089Z,1009.15
2019-01-11T06:45:13.066Z,1009.16
2019-01-11T06:46:13.052Z,1009.11
2019-01-11T06:47:13.041Z,1009.16
2019-01-11T06:48:13.037Z,1009.14
2019-01-11T06:49:12.976Z,1009.07
2019-01-11T06:50:12.979Z,1009.13
2019-01-11T06:51:12.987Z,1009.12
2019-01-11T06:52:12.971Z,1009.09
2019-01-11T06:53:13.011Z,1009.10
2019-01-11T06:54:12.926Z,1009.09
2019-01-11T06:55:12.910Z,1009.11
2019-01-11T06:56:12.968Z,1009.12
2019-01-11T06:57:12.932Z,1009.13
2019-01-11T06:58:12.908Z,1009.13
2019-01-11T06:59:12.903Z,1009.20
2019-01-11T07:00:12.880Z,1009.24
2019-01-11T07:01:12.880Z,1009.21
2019-01-11T07:02:12.908Z,1009.24
2019-01-11T07:03:12.846Z,1009.18
2019-01-11T07:04:12.869Z,1009.22
2019-01-11T07:05:12.814Z,1009.23
2019-01-11T07:06:12.816Z,1009.22
2019-01-11T07:07:12.848Z,1009.20
2019-01-11T07:08:12.802Z,1009.25
2019-01-11T07:09:12.769Z,1009.20
2019-01-11T07:10:12.768Z,1009.27
2019-01-11T07:11:12.769Z,1009.21
2019-01-11T07:12:12.858Z,1009.28
2019-01-11T07:13:12.744Z,1009.27
2019-01-11T07:14:12.840Z,1009.26
2019-01-11T07:15:12.693Z,1009.22
2019-01-11T07:16:12.691Z,1009.24
2019-01-11T07:17:12.692Z,1009.23
2019-01-11T07:18:12.691Z,1009.26
2019-01-11T07:19:12.700Z,1009.21
2019-01-11T07:20:12.696Z,1009.27
2019-01-11T07:21:12.630Z,1009.24
2019-01-11T07:22:12.632Z,1009.27
2019-01-11T07:23:12.613Z,1009.30
2019-01-11T07:24:12.653Z,1009.24
2019-01-11T07:25:12.611Z,1009.23
2019-01-11T07:26:12.590Z,1009.22
2019-01-11T07:27:12.594Z,1009.26
2019-01-11T07:28:13.703Z,1009.26
2019-01-11T07:29:12.567Z,1009.27
2019-01-11T07:30:12.541Z,1009.27
2019-01-11T07:31:12.589Z,1009.25
2019-01-11T07:32:12.672Z,1009.30
2019-01-11T07:33:12.575Z,1009.24
2019-01-11T07:34:12.516Z,1009.24
2019-01-11T07:35:12.508Z,1009.29
2019-01-11T07:36:12.499Z,1009.26
2019-01-11T07:37:12.508Z,1009.25
2019-01-11T07:38:12.448Z,1009.22
2019-01-11T07:39:12.478Z,1009.19
2019-01-11T07:40:12.432Z,1009.21
2019-01-11T07:41:12.405Z,1009.19
2019-01-11T07:42:12.439Z,1009.19
2019-01-11T07:43:12.392Z,1009.17
2019-01-11T07:44:12.528Z,1009.20
2019-01-11T07:45:12.372Z,1009.21
2019-01-11T07:46:12.377Z,1009.25
2019-01-11T07:47:12.374Z,1009.23
2019-01-11T07:48:12.355Z,1009.21
2019-01-11T07:49:12.345Z,1009.25
2019-01-11T07:50:12.316Z,1009.23
2019-01-11T07:51:12.322Z,1009.25
2019-01-11T07:52:12.288Z,1009.20
2019-01-11T07:53:12.353Z,1009.22
2019-01-11T07:54:12.357Z,1009.22
2019-01-11T07:55:12.317Z,1009.25
2019-01-11T07:56:12.313Z,1009.23
2019-01-11T07:57:12.257Z,1009.27
2019-01-11T07:58:12.235Z,1009.27
2019-01-11T07:59:12.243Z,1009.29
2019-01-11T08:00:12.213Z,1009.28
2019-01-11T08:01:12.205Z,1009.29
2019-01-11T08:02:12.195Z,1009.26
2019-01-11T08:03:12.180Z,1009.22
2019-01-11T08:04:12.221Z,1009.23
2019-01-11T08:05:12.181Z,1009.26
2019-01-11T08:06:12.163Z,1009.22
2019-01-11T08:07:12.130Z,1009.20
2019-01-11T08:08:12.132Z,1009.20
2019-01-11T08:09:12.113Z,1009.21
2019-01-11T08:10:12.119Z,1009.21
2019-01-11T08:11:12.082Z,1009.23
2019-01-11T08:12:12.081Z,1009.22
2019-01-11T08:13:12.070Z,1009.21
2019-01-11T08:14:12.101Z,1009.21
2019-01-11T08:15:12.102Z,1009.20
2019-01-11T08:16:12.080Z,1009.22
2019-01-11T08:17:12.066Z,1009.21
2019-01-11T08:18:12.051Z,1009.19
2019-01-11T08:19:12.011Z,1009.20
2019-01-11T08:20:12.044Z,1009.13
2019-01-11T08:21:12.010Z,1009.17
2019-01-11T08:22:12.064Z,1009.21
2019-01-11T08:23:12.013Z,1009.22
2019-01-11T08:24:11.953Z,1009.26
2019-01-11T08:25:11.937Z,1009.21
2019-01-11T08:26:11.959Z,1009.31
2019-01-11T08:27:12.014Z,1009.32
2019-01-11T08:28:11.966Z,1009.32
2019-01-11T08:29:11.919Z,1009.30
2019-01-11T08:30:11.885Z,1009.30
2019-01-11T08:31:11.939Z,1009.33
2019-01-11T08:32:11.900Z,1009.34
2019-01-11T08:33:18.347Z,1009.35
2019-01-11T08:34:12.887Z,1009.35
2019-01-11T08:35:11.843Z,1009.41
2019-01-11T08:36:11.843Z,1009.34
2019-01-11T08:37:11.843Z,1009.39
2019-01-11T08:38:11.813Z,1009.36
2019-01-11T08:39:11.810Z,1009.38
2019-01-11T08:40:11.886Z,1009.40
2019-01-11T08:41:11.813Z,1009.40
2019-01-11T08:42:11.798Z,1009.39
2019-01-11T08:43:11.772Z,1009.41
2019-01-11T08:44:11.755Z,1009.40
2019-01-11T08:45:11.767Z,1009.40
2019-01-11T08:46:11.724Z,1009.39
2019-01-11T08:47:11.714Z,1009.42
2019-01-11T08:48:11.715Z,1009.39
2019-01-11T08:49:11.692Z,1009.41
2019-01-11T08:50:11.680Z,1009.40
2019-01-11T08:51:11.699Z,1009.39
2019-01-11T08:52:11.658Z,1009.37
2019-01-11T08:53:11.649Z,1009.36
2019-01-11T08:54:11.630Z,1009.34
2019-01-11T08:55:11.625Z,1009.36
2019-01-11T08:56:11.629Z,1009.35
2019-01-11T08:57:11.597Z,1009.36
2019-01-11T08:58:11.600Z,1009.36
2019-01-11T08:59:11.607Z,1009.30
2019-01-11T09:00:11.575Z,1009.29
2019-01-11T09:01:11.625Z,1009.32
2019-01-11T09:02:11.549Z,1009.30
2019-01-11T09:03:11.554Z,1009.29
2019-01-11T09:04:11.525Z,1009.28
2019-01-11T09:05:11.525Z,1009.31
2019-01-11T09:06:11.523Z,1009.33
2019-01-11T09:07:11.563Z,1009.29
2019-01-11T09:08:11.505Z,1009.29
2019-01-11T09:09:11.487Z,1009.30
2019-01-11T09:10:11.477Z,1009.32
2019-01-11T09:11:11.462Z,1009.32
2019-01-11T09:12:11.458Z,1009.31
2019-01-11T09:13:11.461Z,1009.32
2019-01-11T09:14:11.446Z,1009.30
2019-01-11T09:15:11.430Z,1009.28
2019-01-11T09:16:11.462Z,1009.33
2019-01-11T09:17:11.402Z,1009.32
2019-01-11T09:18:11.417Z,1009.34
2019-01-11T09:19:11.421Z,1009.29
2019-01-11T09:20:11.384Z,1009.27
2019-01-11T09:21:11.527Z,1009.34
2019-01-11T09:22:11.335Z,1009.34
2019-01-11T09:23:11.332Z,1009.35
2019-01-11T09:24:11.335Z,1009.35
2019-01-11T09:25:11.316Z,1009.37
2019-01-11T09:26:11.394Z,1009.40
2019-01-11T09:27:11.290Z,1009.38
2019-01-11T09:28:11.278Z,1009.38
2019-01-11T09:29:11.279Z,1009.39
2019-01-11T09:30:11.259Z,1009.43
2019-01-11T09:31:11.262Z,1009.44
2019-01-11T09:32:11.231Z,1009.47
2019-01-11T09:33:11.230Z,1009.43
2019-01-11T09:34:11.214Z,1009.41
2019-01-11T09:35:11.225Z,1009.38
2019-01-11T09:36:11.204Z,1009.38
2019-01-11T09:37:11.181Z,1009.37
2019-01-11T09:38:11.188Z,1009.38
2019-01-11T09:39:11.208Z,1009.39
2019-01-11T09:40:11.155Z,1009.38
2019-01-11T09:41:11.147Z,1009.37
2019-01-11T09:42:11.136Z,1009.41
2019-01-11T09:43:11.144Z,1009.38
2019-01-11T09:44:11.124Z,1009.36
2019-01-11T09:45:11.095Z,1009.41
2019-01-11T09:46:11.090Z,1009.35
2019-01-11T09:47:11.084Z,1009.29
2019-01-11T09:48:11.079Z,1009.36
2019-01-11T09:49:11.057Z,1009.34
2019-01-11T09:50:11.043Z,1009.34
2019-01-11T09:51:15.709Z,1009.37
2019-01-11T09:52:11.023Z,1009.37
2019-01-11T09:53:11.007Z,1009.40
2019-01-11T09:54:11.017Z,1009.37
2019-01-11T09:55:10.991Z,1009.39
2019-01-11T09:56:11.015Z,1009.37
2019-01-11T09:57:10.986Z,1009.34
2019-01-11T09:58:10.969Z,1009.37
2019-01-11T09:59:10.973Z,1009.39
2019-01-11T10:00:10.955Z,1009.38
2019-01-11T10:01:10.941Z,1009.31
2019-01-11T10:02:10.934Z,1009.34
2019-01-11T10:03:10.989Z,1009.35
2019-01-11T10:04:10.927Z,1009.31
2019-01-11T10:05:10.886Z,1009.35
2019-01-11T10:06:10.925Z,1009.29
2019-01-11T10:07:10.903Z,1009.29
2019-01-11T10:08:10.889Z,1009.34
2019-01-11T10:09:10.854Z,1009.27
2019-01-11T10:10:10.831Z,1009.33
2019-01-11T10:11:10.844Z,1009.34
2019-01-11T10:12:10.881Z,1009.38
2019-01-11T10:13:10.859Z,1009.32
2019-01-11T10:14:10.845Z,1009.31
2019-01-11T10:15:10.784Z,1009.29
2019-01-11T10:16:10.772Z,1009.30
2019-01-11T10:17:10.750Z,1009.32
2019-01-11T10:18:10.776Z,1009.31
2019-01-11T10:19:10.826Z,1009.25
2019-01-11T10:20:10.871Z,1009.25
2019-01-11T10:21:10.711Z,1009.26
2019-01-11T10:22:10.695Z,1009.28
2019-01-11T10:23:10.704Z,1009.24
2019-01-11T10:24:10.702Z,1009.24
2019-01-11T10:25:10.681Z,1009.25
2019-01-11T10:26:10.668Z,1009.26
2019-01-11T10:27:10.639Z,1009.25
2019-01-11T10:28:10.650Z,1009.28
2019-01-11T10:29:10.629Z,1009.28
2019-01-11T10:30:10.662Z,1009.29
2019-01-11T10:31:10.637Z,1009.29
2019-01-11T10:32:10.629Z,1009.29
2019-01-11T10:33:10.615Z,1009.23
2019-01-11T10:34:10.567Z,1009.22
2019-01-11T10:35:10.558Z,1009.23
2019-01-11T10:36:10.599Z,1009.25
2019-01-11T10:37:10.546Z,1009.23
2019-01-11T10:38:10.554Z,1009.25
2019-01-11T10:39:10.552Z,1009.22
2019-01-11T10:40:10.542Z,1009.21
2019-01-11T10:41:10.500Z,1009.23
2019-01-11T10:42:10.488Z,1009.21
2019-01-11T10:43:10.513Z,1009.20
2019-01-11T10:44:10.490Z,1009.22
2019-01-11T10:45:10.486Z,1009.25
2019-01-11T10:46:10.494Z,1009.20
2019-01-11T10:47:10.461Z,1009.22
2019-01-11T10:48:10.419Z,1009.18
2019-01-11T10:49:10.411Z,1009.19
2019-01-11T10:50:10.446Z,1009.18
2019-01-11T10:51:10.397Z,1009.20
2019-01-11T10:52:10.400Z,1009.17
2019-01-11T10:53:10.420Z,1009.17
2019-01-11T10:54:10.417Z,1009.17
2019-01-11T10:55:10.390Z,1009.16
2019-01-11T10:56:10.368Z,1009.14
2019-01-11T10:57:10.385Z,1009.12
2019-01-11T10:58:10.330Z,1009.10
2019-01-11T10:59:10.324Z,1009.10
2019-01-11T11:00:10.295Z,1009.04
2019-01-11T11:01:10.362Z,1009.08
2019-01-11T11:02:10.263Z,1009.08
2019-01-11T11:03:10.266Z,1009.06
2019-01-11T11:04:10.286Z,1009.04
2019-01-11T11:05:10.259Z,1009.01
2019-01-11T11:06:10.256Z,1009.01
2019-01-11T11:07:10.239Z,1009.04
2019-01-11T11:08:10.321Z,1009.01
2019-01-11T11:09:10.295Z,1009.01
2019-01-11T11:10:10.191Z,1008.95
2019-01-11T11:11:10.169Z,1008.99
2019-01-11T11:12:10.197Z,1008.98
2019-01-11T11:13:10.233Z,1008.95
2019-01-11T11:14:10.232Z,1008.97
2019-01-11T11:15:10.128Z,1008.99
2019-01-11T11:16:10.176Z,1008.98
2019-01-11T11:17:10.160Z,1008.93
2019-01-11T11:18:10.099Z,1008.92
2019-01-11T11:19:10.159Z,1008.90
2019-01-11T11:20:10.084Z,1008.92
2019-01-11T11:21:10.081Z,1008.87
2019-01-11T11:22:10.134Z,1008.87
2019-01-11T11:23:10.053Z,1008.81
2019-01-11T11:24:10.081Z,1008.80
2019-01-11T11:25:10.098Z,1008.80
2019-01-11T11:26:10.006Z,1008.80
2019-01-11T11:27:10.033Z,1008.78
2019-01-11T11:28:10.046Z,1008.78
2019-01-11T11:29:10.323Z,1008.78
2019-01-11T11:30:09.974Z,1008.81
2019-01-11T11:31:09.960Z,1008.76
2019-01-11T11:32:09.981Z,1008.81
2019-01-11T11:33:09.956Z,1008.79
2019-01-11T11:34:09.960Z,1008.73
2019-01-11T11:35:09.923Z,1008.70
2019-01-11T11:36:09.913Z,1008.72
2019-01-11T11:37:09.920Z,1008.73
2019-01-11T11:38:09.990Z,1008.74
2019-01-11T11:39:09.916Z,1008.71
2019-01-11T11:40:09.859Z,1008.72
2019-01-11T11:41:09.867Z,1008.77
2019-01-11T11:42:09.870Z,1008.78
2019-01-11T11:43:09.834Z,1008.78
2019-01-11T11:44:09.815Z,1008.76
2019-01-11T11:45:09.822Z,1008.70
2019-01-11T11:46:09.844Z,1008.75
2019-01-11T11:47:09.794Z,1008.75
2019-01-11T11:48:09.844Z,1008.72
2019-01-11T11:49:09.778Z,1008.70
2019-01-11T11:50:09.778Z,1008.72
2019-01-11T11:51:09.744Z,1008.71
2019-01-11T11:52:09.838Z,1008.77
2019-01-11T11:53:09.730Z,1008.73
2019-01-11T11:54:09.758Z,1008.73
2019-01-11T11:55:09.795Z,1008.76
2019-01-11T11:56:09.705Z,1008.69
2019-01-11T11:57:09.711Z,1008.72
2019-01-11T11:58:09.695Z,1008.68
2019-01-11T11:59:09.682Z,1008.75
2019-01-11T12:00:09.663Z,1008.74
2019-01-11T12:01:09.674Z,1008.77
2019-01-11T12:02:09.771Z,1008.74
2019-01-11T12:03:09.647Z,1008.77
2019-01-11T12:04:09.608Z,1008.74
2019-01-11T12:05:09.617Z,1008.75